createdAt,value
2022-09-18T00:02:41.912Z,12.47
2022-09-18T00:05:43.383Z,12.50
2022-09-18T00:08:45.069Z,12.53
2022-09-18T00:11:48.128Z,12.63
2022-09-18T00:14:49.853Z,12.60
2022-09-18T00:17:51.227Z,12.67
2022-09-18T00:20:52.624Z,12.65
2022-09-18T00:23:56.073Z,12.67
2022-09-18T00:26:57.563Z,12.68
2022-09-18T00:29:58.983Z,12.65
2022-09-18T00:33:00.359Z,12.73
2022-09-18T00:36:04.204Z,12.63
2022-09-18T00:39:06.654Z,12.74
2022-09-18T00:42:12.065Z,12.65
2022-09-18T00:45:13.654Z,12.51
2022-09-18T00:48:15.038Z,12.52
2022-09-18T00:51:17.903Z,12.48
2022-09-18T00:54:24.381Z,12.51
2022-09-18T00:57:30.957Z,12.54
2022-09-18T01:00:32.662Z,12.42
2022-09-18T01:03:34.488Z,12.48
2022-09-18T01:06:46.399Z,12.52
2022-09-18T01:10:10.645Z,12.45
2022-09-18T01:13:45.438Z,12.32
2022-09-18T01:17:05.119Z,12.41
2022-09-18T01:20:25.492Z,12.28
2022-09-18T01:23:36.215Z,12.28
2022-09-18T01:26:58.339Z,12.31
2022-09-18T01:30:05.647Z,12.30
2022-09-18T01:33:15.375Z,12.36
2022-09-18T01:36:21.587Z,12.34
2022-09-18T01:39:34.280Z,12.33
2022-09-18T01:42:37.990Z,12.38
2022-09-18T01:45:46.100Z,12.40
2022-09-18T01:48:55.424Z,12.22
2022-09-18T01:52:05.930Z,12.16
2022-09-18T01:55:16.251Z,12.20
2022-09-18T01:58:21.065Z,12.31
2022-09-18T02:01:27.363Z,12.37
2022-09-18T02:04:32.942Z,12.33
2022-09-18T02:07:47.221Z,12.34
2022-09-18T02:10:55.991Z,12.29
2022-09-18T02:14:02.114Z,12.19
2022-09-18T02:17:28.923Z,12.27
2022-09-18T02:20:34.297Z,12.34
2022-09-18T02:23:38.813Z,12.32
2022-09-18T02:26:41.025Z,12.31
2022-09-18T02:29:45.345Z,12.32
2022-09-18T02:32:47.226Z,12.32
2022-09-18T02:35:57.767Z,12.33
2022-09-18T02:39:14.832Z,12.31
2022-09-18T02:42:23.054Z,12.36
2022-09-18T02:45:36.681Z,12.24
2022-09-18T02:49:04.127Z,12.10
2022-09-18T02:52:17.781Z,12.18
2022-09-18T02:55:40.452Z,12.07
2022-09-18T02:58:47.789Z,12.07
2022-09-18T03:01:49.859Z,12.10
2022-09-18T03:04:54.725Z,12.04
2022-09-18T03:08:02.927Z,11.97
2022-09-18T03:11:06.333Z,11.89
2022-09-18T03:14:08.212Z,11.84
2022-09-18T03:17:10.305Z,11.79
2022-09-18T03:20:11.739Z,11.70
2022-09-18T03:23:13.137Z,11.77
2022-09-18T03:26:15.968Z,11.82
2022-09-18T03:29:17.932Z,11.85
2022-09-18T03:32:19.356Z,11.93
2022-09-18T03:35:23.884Z,11.94
2022-09-18T03:38:25.358Z,11.96
2022-09-18T03:41:27.962Z,11.93
2022-09-18T03:44:30.946Z,11.92
2022-09-18T03:47:36.649Z,11.94
2022-09-18T03:50:38.406Z,11.96
2022-09-18T03:53:41.742Z,12.01
2022-09-18T03:56:57.160Z,11.96
2022-09-18T04:00:09.967Z,11.94
2022-09-18T04:03:17.414Z,11.84
2022-09-18T04:06:51.668Z,11.83
2022-09-18T04:10:13.353Z,11.86
2022-09-18T04:13:15.701Z,11.82
2022-09-18T04:16:17.780Z,11.81
2022-09-18T04:19:19.590Z,11.82
2022-09-18T04:22:22.114Z,11.86
2022-09-18T04:25:23.640Z,11.83
2022-09-18T04:28:25.954Z,11.85
2022-09-18T04:31:29.340Z,11.83
2022-09-18T04:34:35.073Z,11.79
2022-09-18T04:37:36.846Z,11.86
2022-09-18T04:40:38.555Z,11.85
2022-09-18T04:43:40.040Z,11.93
2022-09-18T04:46:42.534Z,11.80
2022-09-18T04:49:45.078Z,11.85
2022-09-18T04:52:47.242Z,11.85
2022-09-18T04:55:49.261Z,11.85
2022-09-18T04:58:52.313Z,11.81
2022-09-18T05:01:53.803Z,11.80
2022-09-18T05:04:55.233Z,11.78
2022-09-18T05:08:06.440Z,11.78
2022-09-18T05:11:07.948Z,11.77
2022-09-18T05:14:11.597Z,11.74
2022-09-18T05:17:15.258Z,11.85
2022-09-18T05:20:30.954Z,11.82
2022-09-18T05:23:38.812Z,11.82
2022-09-18T05:26:40.272Z,11.78
2022-09-18T05:29:44.636Z,11.80
2022-09-18T05:33:02.008Z,11.74
2022-09-18T05:36:05.454Z,11.86
2022-09-18T05:39:07.286Z,11.93
2022-09-18T05:42:09.825Z,11.87
2022-09-18T05:45:12.095Z,11.83
2022-09-18T05:48:13.581Z,11.81
2022-09-18T05:51:15.284Z,11.81
2022-09-18T05:54:16.813Z,11.81
2022-09-18T05:57:23.626Z,11.85
2022-09-18T06:00:26.505Z,11.84
2022-09-18T06:03:35.879Z,11.82
2022-09-18T06:06:37.355Z,11.80
2022-09-18T06:09:39.652Z,11.87
2022-09-18T06:12:41.134Z,11.97
2022-09-18T06:15:47.754Z,11.98
2022-09-18T06:18:50.809Z,12.05
2022-09-18T06:21:52.420Z,12.04
2022-09-18T06:24:55.875Z,12.09
2022-09-18T06:28:06.401Z,12.17
2022-09-18T06:31:07.900Z,12.12
2022-09-18T06:34:22.573Z,12.15
2022-09-18T06:37:24.693Z,12.20
2022-09-18T06:40:53.663Z,12.15
2022-09-18T06:44:13.876Z,12.21
2022-09-18T06:47:19.974Z,12.14
2022-09-18T06:50:23.491Z,12.19
2022-09-18T06:53:26.320Z,12.30
2022-09-18T06:56:33.603Z,12.31
2022-09-18T06:59:35.213Z,12.33
2022-09-18T07:02:37.796Z,12.40
2022-09-18T07:06:11.389Z,12.37
2022-09-18T07:09:18.807Z,12.43
2022-09-18T07:12:36.251Z,12.41
2022-09-18T07:15:41.116Z,12.48
2022-09-18T07:18:46.568Z,12.46
2022-09-18T07:21:48.369Z,12.52
2022-09-18T07:24:49.800Z,12.61
2022-09-18T07:27:51.423Z,12.60
2022-09-18T07:30:55.275Z,12.51
2022-09-18T07:33:56.713Z,12.67
2022-09-18T07:37:01.860Z,12.85
2022-09-18T07:40:09.436Z,12.81
2022-09-18T07:43:29.772Z,12.84
2022-09-18T07:46:31.523Z,12.86
2022-09-18T07:49:38.769Z,12.90
2022-09-18T07:52:54.162Z,12.83
2022-09-18T07:56:00.007Z,12.83
2022-09-18T07:59:01.386Z,12.92
2022-09-18T08:02:07.031Z,12.83
2022-09-18T08:05:10.881Z,12.86
2022-09-18T08:08:17.902Z,12.93
2022-09-18T08:11:27.386Z,13.01
2022-09-18T08:14:30.820Z,13.13
2022-09-18T08:17:49.968Z,13.22
2022-09-18T08:21:10.674Z,13.25
2022-09-18T08:24:21.778Z,13.30
2022-09-18T08:27:24.461Z,13.36
2022-09-18T08:30:27.675Z,13.30
2022-09-18T08:33:31.348Z,13.37
2022-09-18T08:36:34.511Z,13.44
2022-09-18T08:39:43.356Z,13.50
2022-09-18T08:43:16.280Z,13.60
2022-09-18T08:46:43.228Z,13.59
2022-09-18T08:49:51.533Z,13.63
2022-09-18T08:53:03.422Z,13.65
2022-09-18T08:56:27.876Z,13.79
2022-09-18T09:00:03.283Z,13.78
2022-09-18T09:03:16.693Z,13.82
2022-09-18T09:06:32.579Z,13.74
2022-09-18T09:09:55.561Z,13.68
2022-09-18T09:13:04.799Z,13.72
2022-09-18T09:16:18.431Z,13.92
2022-09-18T09:19:41.152Z,13.97
2022-09-18T09:22:57.889Z,14.02
2022-09-18T09:26:06.820Z,14.17
2022-09-18T09:29:46.196Z,14.17
2022-09-18T09:32:53.917Z,14.33
2022-09-18T09:36:15.578Z,14.34
2022-09-18T09:39:35.404Z,14.54
2022-09-18T09:43:11.415Z,14.56
2022-09-18T09:46:47.979Z,14.64
2022-09-18T09:50:08.429Z,14.71
2022-09-18T09:53:12.990Z,14.64
2022-09-18T09:56:31.973Z,14.82
2022-09-18T09:59:56.988Z,14.89
2022-09-18T10:03:31.849Z,14.85
2022-09-18T10:06:58.081Z,14.82
2022-09-18T10:10:15.889Z,14.87
2022-09-18T10:13:21.817Z,14.84
2022-09-18T10:16:54.890Z,14.96
2022-09-18T10:19:56.589Z,14.98
2022-09-18T10:23:03.516Z,15.11
2022-09-18T10:26:06.093Z,15.03
2022-09-18T10:29:09.994Z,14.91
2022-09-18T10:32:41.533Z,15.07
2022-09-18T10:35:56.244Z,15.09
2022-09-18T10:38:59.734Z,15.03
2022-09-18T10:42:16.676Z,15.17
2022-09-18T10:45:27.744Z,15.23
2022-09-18T10:48:43.913Z,15.39
2022-09-18T10:51:45.365Z,15.30
2022-09-18T10:55:12.428Z,15.40
2022-09-18T10:58:17.236Z,15.41
2022-09-18T11:01:26.135Z,15.58
2022-09-18T11:04:32.053Z,15.72
2022-09-18T11:07:34.973Z,15.79
2022-09-18T11:10:37.591Z,15.81
2022-09-18T11:13:59.583Z,15.95
2022-09-18T11:17:05.709Z,15.86
2022-09-18T11:20:23.543Z,15.89
2022-09-18T11:23:35.515Z,15.95
2022-09-18T11:26:49.373Z,16.05
2022-09-18T11:29:51.572Z,16.19
2022-09-18T11:32:58.549Z,16.25
2022-09-18T11:36:07.711Z,16.05
2022-09-18T11:39:24.419Z,15.98
2022-09-18T11:42:27.661Z,15.90
2022-09-18T11:45:52.946Z,15.77
2022-09-18T11:49:05.504Z,15.62
2022-09-18T11:52:25.938Z,15.58
2022-09-18T11:55:41.298Z,15.60
2022-09-18T11:58:49.367Z,15.61
2022-09-18T12:01:57.484Z,15.62
2022-09-18T12:05:33.690Z,15.57
2022-09-18T12:08:53.186Z,15.51
2022-09-18T12:12:04.102Z,15.49
2022-09-18T12:15:24.006Z,15.43
2022-09-18T12:18:33.807Z,15.46
2022-09-18T12:21:42.865Z,15.50
2022-09-18T12:24:46.164Z,15.62
2022-09-18T12:27:48.771Z,15.47
2022-09-18T12:31:06.235Z,15.44
2022-09-18T12:34:25.033Z,15.44
2022-09-18T12:37:35.719Z,15.45
2022-09-18T12:40:53.061Z,15.55
2022-09-18T12:44:10.275Z,15.57
2022-09-18T12:47:30.332Z,15.67
2022-09-18T12:50:45.463Z,15.70
2022-09-18T12:54:06.638Z,15.69
2022-09-18T12:57:43.616Z,15.78
2022-09-18T13:00:48.900Z,15.90
2022-09-18T13:03:52.627Z,15.92
2022-09-18T13:07:10.442Z,15.81
2022-09-18T13:10:27.221Z,15.85
2022-09-18T13:13:34.585Z,15.90
2022-09-18T13:17:16.769Z,15.74
2022-09-18T13:20:30.653Z,15.60
2022-09-18T13:23:37.876Z,15.58
2022-09-18T13:26:40.780Z,15.63
2022-09-18T13:29:51.419Z,15.65
2022-09-18T13:32:54.240Z,15.62
2022-09-18T13:35:57.404Z,15.62
2022-09-18T13:39:02.555Z,15.66
2022-09-18T13:42:04.182Z,15.75
2022-09-18T13:45:28.000Z,15.71
2022-09-18T13:48:45.848Z,15.69
2022-09-18T13:51:47.316Z,15.82
2022-09-18T13:55:13.565Z,15.72
2022-09-18T13:58:55.441Z,15.74
2022-09-18T14:02:02.317Z,15.64
2022-09-18T14:05:33.415Z,15.70
2022-09-18T14:08:38.436Z,15.69
2022-09-18T14:11:39.835Z,15.69
2022-09-18T14:14:42.477Z,15.71
2022-09-18T14:18:06.775Z,15.66
2022-09-18T14:21:17.177Z,15.69
2022-09-18T14:24:40.372Z,15.61
2022-09-18T14:28:03.242Z,15.56
2022-09-18T14:31:18.638Z,15.60
2022-09-18T14:34:23.433Z,15.64
2022-09-18T14:37:28.691Z,15.62
2022-09-18T14:40:31.149Z,15.70
2022-09-18T14:43:32.625Z,15.64
2022-09-18T14:46:34.114Z,15.62
2022-09-18T14:49:36.703Z,15.60
2022-09-18T14:52:43.957Z,15.61
2022-09-18T14:55:52.047Z,15.62
2022-09-18T14:58:53.522Z,15.59
2022-09-18T15:02:17.034Z,15.54
2022-09-18T15:05:20.555Z,15.51
2022-09-18T15:08:26.829Z,15.59
2022-09-18T15:11:37.703Z,15.68
2022-09-18T15:14:48.946Z,15.59
2022-09-18T15:17:51.104Z,15.66
2022-09-18T15:20:54.641Z,15.46
2022-09-18T15:23:57.208Z,15.48
2022-09-18T15:27:01.384Z,15.49
2022-09-18T15:30:11.209Z,15.61
2022-09-18T15:33:19.080Z,15.64
2022-09-18T15:36:27.316Z,15.65
2022-09-18T15:39:37.912Z,15.54
2022-09-18T15:42:41.727Z,15.51
2022-09-18T15:46:02.563Z,15.56
2022-09-18T15:49:28.284Z,15.48
2022-09-18T15:52:43.300Z,15.50
2022-09-18T15:55:57.203Z,15.54
2022-09-18T15:59:00.098Z,15.54
2022-09-18T16:02:08.047Z,15.38
2022-09-18T16:05:15.181Z,15.51
2022-09-18T16:08:19.951Z,15.61
2022-09-18T16:11:45.910Z,15.60
2022-09-18T16:14:58.661Z,15.44
2022-09-18T16:18:04.581Z,15.38
2022-09-18T16:21:08.736Z,15.39
2022-09-18T16:24:28.328Z,15.37
2022-09-18T16:27:29.750Z,15.52
2022-09-18T16:30:31.199Z,15.54
2022-09-18T16:33:33.774Z,15.45
2022-09-18T16:36:41.341Z,15.30
2022-09-18T16:39:42.804Z,15.26
2022-09-18T16:42:44.712Z,15.40
2022-09-18T16:45:48.987Z,15.29
2022-09-18T16:48:52.028Z,15.32
2022-09-18T16:51:55.546Z,15.29
2022-09-18T16:54:56.953Z,15.26
2022-09-18T16:57:58.529Z,15.21
2022-09-18T17:01:00.333Z,15.21
2022-09-18T17:04:03.269Z,15.21
2022-09-18T17:07:06.267Z,15.21
2022-09-18T17:10:08.700Z,15.14
2022-09-18T17:13:10.064Z,15.09
2022-09-18T17:16:11.485Z,14.99
2022-09-18T17:19:13.727Z,14.88
2022-09-18T17:22:15.111Z,14.77
2022-09-18T17:25:16.509Z,14.71
2022-09-18T17:28:18.277Z,14.70
2022-09-18T17:31:19.871Z,14.74
2022-09-18T17:34:22.011Z,14.67
2022-09-18T17:37:23.676Z,14.63
2022-09-18T17:40:25.336Z,14.57
2022-09-18T17:43:27.795Z,14.56
2022-09-18T17:46:29.320Z,14.55
2022-09-18T17:49:32.270Z,14.45
2022-09-18T17:52:35.624Z,14.42
2022-09-18T17:55:37.770Z,14.40
2022-09-18T17:58:41.237Z,14.36
2022-09-18T18:01:46.088Z,14.39
2022-09-18T18:04:47.532Z,14.34
2022-09-18T18:07:48.950Z,14.34
2022-09-18T18:10:50.325Z,14.31
2022-09-18T18:13:53.860Z,14.18
2022-09-18T18:16:55.252Z,14.15
2022-09-18T18:19:56.617Z,14.11
2022-09-18T18:22:58.061Z,14.02
2022-09-18T18:26:04.605Z,13.96
2022-09-18T18:29:10.837Z,13.91
2022-09-18T18:32:12.567Z,13.97
2022-09-18T18:35:14.393Z,14.07
2022-09-18T18:38:17.297Z,14.10
2022-09-18T18:41:20.622Z,14.10
2022-09-18T18:44:23.143Z,13.92
2022-09-18T18:47:25.400Z,14.01
2022-09-18T18:50:32.977Z,14.00
2022-09-18T18:53:36.048Z,13.95
2022-09-18T18:56:38.682Z,14.02
2022-09-18T18:59:40.586Z,13.98
2022-09-18T19:02:41.951Z,13.84
2022-09-18T19:05:43.400Z,13.71
2022-09-18T19:08:47.595Z,13.65
2022-09-18T19:11:52.287Z,13.70
2022-09-18T19:14:53.651Z,13.77
2022-09-18T19:17:56.334Z,13.79
2022-09-18T19:20:58.139Z,13.61
2022-09-18T19:23:59.517Z,13.39
2022-09-18T19:27:00.992Z,13.38
2022-09-18T19:30:02.375Z,13.43
2022-09-18T19:33:03.768Z,13.42
2022-09-18T19:36:06.591Z,13.37
2022-09-18T19:39:11.063Z,13.30
2022-09-18T19:42:14.786Z,13.24
2022-09-18T19:45:23.026Z,13.19
2022-09-18T19:48:27.021Z,13.15
2022-09-18T19:51:30.437Z,13.12
2022-09-18T19:54:31.921Z,13.17
2022-09-18T19:57:33.296Z,13.13
2022-09-18T20:00:35.292Z,13.19
2022-09-18T20:03:37.827Z,13.09
2022-09-18T20:06:40.387Z,13.04
2022-09-18T20:09:41.925Z,12.97
2022-09-18T20:12:43.340Z,12.97
2022-09-18T20:15:45.377Z,12.84
2022-09-18T20:18:47.977Z,12.96
2022-09-18T20:21:50.297Z,12.99
2022-09-18T20:24:52.897Z,12.95
2022-09-18T20:27:54.269Z,12.97
2022-09-18T20:30:55.632Z,12.92
2022-09-18T20:33:58.683Z,13.05
2022-09-18T20:37:00.141Z,12.92
2022-09-18T20:40:03.102Z,13.08
2022-09-18T20:43:05.479Z,13.10
2022-09-18T20:46:11.356Z,13.06
2022-09-18T20:49:13.131Z,13.19
2022-09-18T20:52:14.797Z,13.28
2022-09-18T20:55:17.406Z,13.16
2022-09-18T20:58:18.845Z,13.15
2022-09-18T21:01:22.963Z,13.16
2022-09-18T21:04:24.336Z,13.00
2022-09-18T21:07:26.178Z,12.69
2022-09-18T21:10:29.029Z,12.39
2022-09-18T21:13:31.244Z,12.15
2022-09-18T21:16:35.911Z,12.05
2022-09-18T21:19:38.374Z,11.93
2022-09-18T21:22:59.727Z,11.88
2022-09-18T21:26:11.895Z,11.26
2022-09-18T21:29:25.037Z,10.75
2022-09-18T21:32:26.396Z,10.48
2022-09-18T21:35:27.765Z,10.49
2022-09-18T21:38:29.279Z,10.50
2022-09-18T21:41:35.664Z,10.33
2022-09-18T21:44:37.748Z,10.34
2022-09-18T21:47:39.667Z,10.31
2022-09-18T21:50:42.543Z,10.39
2022-09-18T21:53:44.861Z,10.37
2022-09-18T21:56:51.201Z,10.30
2022-09-18T21:59:52.573Z,10.17
2022-09-18T22:02:54.687Z,10.19
2022-09-18T22:06:00.014Z,10.28
2022-09-18T22:09:06.796Z,10.39
2022-09-18T22:12:09.664Z,10.49
2022-09-18T22:15:11.084Z,10.61
2022-09-18T22:18:12.452Z,10.63
2022-09-18T22:21:20.588Z,10.71
2022-09-18T22:24:24.521Z,10.67
2022-09-18T22:27:25.882Z,10.48
2022-09-18T22:30:27.374Z,10.38
2022-09-18T22:33:28.745Z,10.54
2022-09-18T22:36:30.204Z,10.53
2022-09-18T22:39:31.630Z,10.47
2022-09-18T22:42:32.992Z,10.59
2022-09-18T22:45:34.405Z,10.44
2022-09-18T22:48:36.450Z,10.37
2022-09-18T22:51:39.743Z,10.35
2022-09-18T22:54:41.097Z,10.41
2022-09-18T22:57:42.461Z,10.53
2022-09-18T23:00:43.830Z,10.50
2022-09-18T23:03:46.796Z,10.46
2022-09-18T23:06:48.483Z,10.39
2022-09-18T23:09:49.845Z,10.39
2022-09-18T23:12:51.236Z,10.43
2022-09-18T23:15:52.669Z,10.45
2022-09-18T23:18:59.668Z,10.54
2022-09-18T23:22:01.555Z,10.51
2022-09-18T23:25:02.946Z,10.51
2022-09-18T23:28:04.299Z,10.58
2022-09-18T23:31:20.014Z,10.60
2022-09-18T23:34:23.833Z,10.63
2022-09-18T23:37:25.191Z,10.63
2022-09-18T23:40:26.592Z,10.64
2022-09-18T23:43:28.848Z,10.63
2022-09-18T23:46:31.069Z,10.59
2022-09-18T23:49:33.361Z,10.56
2022-09-18T23:52:34.739Z,10.55
2022-09-18T23:55:36.114Z,10.52
2022-09-18T23:58:38.782Z,10.57
